Hlavní strana
METAR-TAF:

METAR-TAF

Letiště :

Kanoya, Japonsko

zeměpisná šířka: 31-22N, zeměpisná délka: 130-50E, výška: 65 m

Aktuální stav počasí

Zpráva byla vytvořena před 8 hodinami a 22 minutami, v 01:07 UTC
vítr z různých směrů 1 kt
Teplota 12°C
Vlhkost vzduchu 62%
Tlak 1027 hPa
Viditelnost 10 km a více
Skoro jasno ve výšce 3000 ft

METAR: RJFY 240107Z VRB01KT 9999 FEW030 12/05 Q1027 RMK 1CU030 A3035 VOLCANIC ASH 20KM E MOV E

Čas: 18:29 (09:29 UTC)


TAF: chybějící

Stav a předpovědi počasí z více než 4 000 letišť (zprávy METAR a TAF).

Červené a žluté tečky na mapě představují dostupné meteorologické stanice.

Když kurzor umístíte na tečku, zobrazí se název stanice.

Pak kliknutím zobrazíte stav a předpověď počasí.

Chcete-li změnit mapu, kliknutím na zelené tlačítko se znaménkem +mapu přiblížíte, kliknutím na zelené tlačítko se znaménkem – mapu oddálíte a kliknutím na zelené šipky přejdete na sousední mapy.


METAR-TAF: